createdAt,value
2022-11-16T00:00:49.468Z,5.82
2022-11-16T00:03:16.568Z,4.72
2022-11-16T00:05:43.648Z,2.97
2022-11-16T00:08:10.690Z,2.70
2022-11-16T00:10:39.248Z,2.59
2022-11-16T00:13:06.307Z,2.57
2022-11-16T00:15:33.366Z,2.12
2022-11-16T00:18:00.389Z,2.14
2022-11-16T00:20:27.386Z,1.57
2022-11-16T00:22:54.466Z,1.19
2022-11-16T00:25:21.468Z,0.91
2022-11-16T00:27:51.008Z,1.09
2022-11-16T00:30:18.086Z,0.81
2022-11-16T00:32:45.087Z,0.82
2022-11-16T00:35:12.148Z,0.68
2022-11-16T00:37:39.248Z,0.68
2022-11-16T00:40:08.007Z,0.66
2022-11-16T00:42:35.089Z,0.60
2022-11-16T00:45:03.967Z,0.66
2022-11-16T00:47:30.968Z,0.47
2022-11-16T00:49:58.547Z,0.41
2022-11-16T00:52:25.667Z,0.60
2022-11-16T00:54:52.866Z,0.72
2022-11-16T00:57:20.068Z,0.63
2022-11-16T00:59:47.208Z,0.60
2022-11-16T01:02:15.966Z,0.44
2022-11-16T01:04:43.095Z,0.46
2022-11-16T01:07:10.297Z,0.79
2022-11-16T01:09:37.386Z,1.16
2022-11-16T01:12:05.108Z,0.90
2022-11-16T01:14:32.189Z,0.70
2022-11-16T01:16:59.307Z,0.65
2022-11-16T01:19:27.828Z,0.56
2022-11-16T01:21:55.092Z,0.46
2022-11-16T01:24:23.626Z,0.51
2022-11-16T01:26:50.768Z,0.47
2022-11-16T01:29:18.028Z,0.72
2022-11-16T01:31:45.109Z,0.70
2022-11-16T01:34:13.446Z,0.49
2022-11-16T01:36:42.028Z,0.61
2022-11-16T01:39:11.908Z,0.64
2022-11-16T01:41:39.587Z,0.74
2022-11-16T01:44:45.186Z,0.61
2022-11-16T01:47:15.426Z,0.44
2022-11-16T01:49:47.766Z,0.48
2022-11-16T01:52:21.787Z,0.62
2022-11-16T01:54:53.667Z,0.51
2022-11-16T01:57:26.066Z,0.50
2022-11-16T01:59:58.128Z,0.60
2022-11-16T02:02:25.347Z,0.69
2022-11-16T02:04:55.092Z,1.11
2022-11-16T02:07:40.567Z,1.21
2022-11-16T02:10:24.347Z,1.47
2022-11-16T02:13:15.565Z,1.80
2022-11-16T02:15:48.014Z,2.02
2022-11-16T02:18:30.311Z,2.24
2022-11-16T02:21:14.787Z,2.43
2022-11-16T02:24:14.467Z,2.45
2022-11-16T02:27:20.206Z,2.44
2022-11-16T02:29:53.369Z,2.41
2022-11-16T02:32:30.286Z,2.28
2022-11-16T02:35:05.385Z,2.49
2022-11-16T02:37:39.805Z,2.12
2022-11-16T02:40:13.005Z,1.94
2022-11-16T02:42:47.847Z,1.66
2022-11-16T02:45:22.404Z,7.50
2022-11-16T02:47:53.464Z,2.88
2022-11-16T02:50:23.984Z,1.51
2022-11-16T02:52:51.009Z,5.70
2022-11-16T02:55:18.445Z,8.52
2022-11-16T02:57:51.885Z,8.17
2022-11-16T03:00:24.048Z,7.00
2022-11-16T03:03:07.622Z,5.77
2022-11-16T03:05:40.696Z,4.57
2022-11-16T03:08:17.481Z,4.15
2022-11-16T03:10:50.558Z,3.79
2022-11-16T03:13:21.858Z,3.18
2022-11-16T03:15:53.178Z,2.86
2022-11-16T03:18:26.657Z,2.57
2022-11-16T03:21:02.210Z,2.57
2022-11-16T03:23:29.878Z,2.23
2022-11-16T03:26:00.276Z,1.88
2022-11-16T03:28:36.779Z,1.83
2022-11-16T03:31:13.438Z,1.67
2022-11-16T03:33:48.719Z,1.52
2022-11-16T03:36:22.797Z,1.26
2022-11-16T03:38:52.961Z,1.21
2022-11-16T03:41:24.577Z,0.95
2022-11-16T03:43:55.198Z,1.15
2022-11-16T03:46:24.559Z,0.98
2022-11-16T03:48:58.316Z,1.09
2022-11-16T03:51:26.337Z,1.00
2022-11-16T03:53:53.457Z,0.82
2022-11-16T03:56:20.658Z,1.06
2022-11-16T03:58:47.763Z,0.96
2022-11-16T04:01:14.905Z,0.93
2022-11-16T04:03:43.497Z,0.90
2022-11-16T04:06:11.217Z,1.03
2022-11-16T04:08:38.237Z,1.02
2022-11-16T04:11:05.978Z,1.01
2022-11-16T04:13:34.899Z,1.18
2022-11-16T04:16:01.925Z,1.06
2022-11-16T04:18:29.061Z,0.96
2022-11-16T04:20:58.046Z,1.04
2022-11-16T04:23:25.337Z,1.10
2022-11-16T04:25:52.847Z,0.96
2022-11-16T04:28:25.786Z,1.06
2022-11-16T04:30:57.617Z,1.02
2022-11-16T04:33:25.121Z,1.13
2022-11-16T04:35:52.126Z,0.94
2022-11-16T04:38:20.886Z,1.09
2022-11-16T04:40:48.167Z,1.10
2022-11-16T04:43:15.333Z,1.07
2022-11-16T04:45:42.489Z,1.14
2022-11-16T04:48:10.151Z,1.07
2022-11-16T04:50:37.757Z,1.16
2022-11-16T04:53:06.373Z,1.26
2022-11-16T04:55:35.487Z,1.26
2022-11-16T04:58:03.130Z,1.32
2022-11-16T05:00:30.884Z,1.14
2022-11-16T05:03:01.503Z,1.00
2022-11-16T05:05:29.004Z,1.16
2022-11-16T05:07:56.285Z,1.06
2022-11-16T05:10:23.405Z,1.05
2022-11-16T05:12:52.065Z,0.96
2022-11-16T05:15:19.081Z,1.09
2022-11-16T05:17:46.200Z,1.09
2022-11-16T05:20:13.271Z,1.03
2022-11-16T05:22:40.345Z,0.98
2022-11-16T05:25:09.546Z,0.89
2022-11-16T05:27:37.190Z,0.90
2022-11-16T05:30:07.110Z,0.83
2022-11-16T05:32:34.252Z,1.04
2022-11-16T05:35:01.324Z,0.92
2022-11-16T05:37:28.581Z,1.06
2022-11-16T05:39:55.682Z,0.98
2022-11-16T05:42:23.403Z,0.98
2022-11-16T05:44:50.563Z,0.98
2022-11-16T05:47:19.127Z,1.05
2022-11-16T05:49:46.152Z,0.90
2022-11-16T05:52:13.272Z,0.98
2022-11-16T05:54:40.424Z,1.06
2022-11-16T05:57:07.658Z,1.14
2022-11-16T05:59:34.812Z,1.36
2022-11-16T06:02:01.927Z,1.85
2022-11-16T06:04:30.520Z,2.74
2022-11-16T06:06:57.587Z,2.56
2022-11-16T06:09:24.685Z,2.69
2022-11-16T06:11:52.097Z,2.49
2022-11-16T06:14:19.254Z,2.41
2022-11-16T06:16:46.343Z,2.58
2022-11-16T06:19:13.369Z,2.37
2022-11-16T06:21:41.984Z,2.27
2022-11-16T06:24:09.333Z,2.22
2022-11-16T06:26:36.678Z,2.05
2022-11-16T06:29:04.535Z,2.12
2022-11-16T06:31:32.413Z,1.79
2022-11-16T06:33:59.502Z,1.77
2022-11-16T06:36:26.616Z,1.54
2022-11-16T06:38:55.168Z,1.63
2022-11-16T06:41:22.359Z,1.65
2022-11-16T06:43:49.467Z,1.55
2022-11-16T06:46:16.651Z,1.42
2022-11-16T06:48:44.041Z,1.42
2022-11-16T06:51:11.440Z,1.30
2022-11-16T06:53:38.487Z,1.55
2022-11-16T06:56:08.173Z,1.37
2022-11-16T06:58:35.593Z,1.16
2022-11-16T07:01:07.253Z,1.41
2022-11-16T07:03:34.347Z,1.52
2022-11-16T07:06:06.910Z,1.50
2022-11-16T07:08:34.200Z,1.50
2022-11-16T07:11:08.531Z,1.24
2022-11-16T07:13:37.404Z,1.63
2022-11-16T07:16:06.767Z,1.57
2022-11-16T07:18:35.607Z,1.30
2022-11-16T07:21:06.527Z,1.39
2022-11-16T07:23:33.971Z,1.24
2022-11-16T07:26:01.851Z,1.26
2022-11-16T07:28:31.007Z,1.35
2022-11-16T07:31:01.369Z,1.41
2022-11-16T07:33:29.110Z,1.37
2022-11-16T07:36:01.490Z,1.24
2022-11-16T07:38:29.169Z,1.04
2022-11-16T07:41:00.062Z,1.33
2022-11-16T07:43:30.692Z,1.23
2022-11-16T07:46:30.252Z,1.20
2022-11-16T07:48:48.672Z,1.09
2022-11-16T07:51:17.502Z,1.16
2022-11-16T07:53:45.810Z,1.16
2022-11-16T07:56:13.465Z,1.21
2022-11-16T07:58:42.091Z,1.28
2022-11-16T08:01:11.153Z,1.33
2022-11-16T08:03:39.869Z,1.40
2022-11-16T08:06:11.284Z,1.29
2022-11-16T08:08:38.481Z,1.32
2022-11-16T08:11:07.882Z,1.22
2022-11-16T08:13:37.050Z,1.18
2022-11-16T08:16:08.045Z,0.97
2022-11-16T08:18:36.762Z,0.96
2022-11-16T08:21:05.098Z,1.08
2022-11-16T08:23:33.257Z,1.18
2022-11-16T08:26:01.878Z,1.03
2022-11-16T08:28:30.511Z,1.05
2022-11-16T08:30:59.204Z,0.99
2022-11-16T08:33:29.457Z,0.88
2022-11-16T08:35:56.537Z,0.84
2022-11-16T08:38:23.601Z,0.87
2022-11-16T08:43:35.161Z,0.78
2022-11-16T08:46:02.352Z,0.90
2022-11-16T08:48:31.032Z,0.88
2022-11-16T08:51:16.884Z,0.98
2022-11-16T08:53:45.096Z,0.87
2022-11-16T08:56:12.816Z,1.07
2022-11-16T08:58:41.652Z,0.85
2022-11-16T09:01:09.861Z,0.92
2022-11-16T09:03:38.943Z,0.88
2022-11-16T09:06:07.900Z,0.71
2022-11-16T09:08:37.776Z,1.12
2022-11-16T09:11:05.812Z,0.92
2022-11-16T09:13:33.158Z,1.00
2022-11-16T09:16:01.381Z,0.84
2022-11-16T09:18:29.627Z,0.88
2022-11-16T09:20:58.224Z,0.79
2022-11-16T09:23:25.843Z,0.97
2022-11-16T09:25:54.620Z,0.89
2022-11-16T09:28:22.899Z,0.83
2022-11-16T09:30:51.490Z,0.90
2022-11-16T09:33:19.186Z,0.79
2022-11-16T09:35:46.489Z,0.89
2022-11-16T09:38:20.719Z,0.89
2022-11-16T09:40:54.085Z,1.09
2022-11-16T09:43:44.107Z,1.05
2022-11-16T09:46:24.678Z,1.04
2022-11-16T09:48:56.680Z,1.20
2022-11-16T09:51:30.076Z,0.87
2022-11-16T09:54:05.658Z,0.97
2022-11-16T09:56:37.784Z,0.73
2022-11-16T09:59:18.167Z,0.85
2022-11-16T10:01:52.880Z,0.88
2022-11-16T10:04:31.226Z,0.95
2022-11-16T10:07:05.898Z,0.83
2022-11-16T10:09:36.340Z,1.05
2022-11-16T10:12:23.355Z,1.03
2022-11-16T10:15:17.275Z,0.99
2022-11-16T10:18:03.593Z,0.90
2022-11-16T10:20:49.858Z,0.85
2022-11-16T10:23:31.081Z,1.00
2022-11-16T10:26:16.830Z,1.08
2022-11-16T10:29:15.763Z,0.85
2022-11-16T10:32:03.330Z,0.87
2022-11-16T10:34:43.284Z,0.86
2022-11-16T10:37:14.156Z,0.85
2022-11-16T10:39:41.960Z,1.87
2022-11-16T10:42:19.275Z,2.16
2022-11-16T10:44:53.865Z,1.27
2022-11-16T10:47:30.890Z,1.27
2022-11-16T10:50:04.986Z,1.14
2022-11-16T10:52:32.066Z,1.10
2022-11-16T10:54:59.108Z,1.31
2022-11-16T10:57:54.184Z,1.22
2022-11-16T11:00:46.259Z,0.97
2022-11-16T11:03:14.645Z,0.92
2022-11-16T11:05:52.885Z,0.99
2022-11-16T11:08:28.926Z,1.03
2022-11-16T11:11:02.008Z,0.98
2022-11-16T11:13:30.713Z,0.95
2022-11-16T11:16:15.505Z,1.04
2022-11-16T11:18:42.944Z,1.12
2022-11-16T11:21:18.698Z,1.16
2022-11-16T11:23:49.366Z,1.10
2022-11-16T11:26:36.537Z,1.09
2022-11-16T11:29:27.287Z,1.07
2022-11-16T11:31:59.590Z,1.16
2022-11-16T11:34:30.429Z,1.07
2022-11-16T11:37:01.387Z,1.20
2022-11-16T11:39:35.120Z,1.39
2022-11-16T11:42:23.431Z,1.27
2022-11-16T11:44:57.865Z,1.23
2022-11-16T11:48:00.359Z,1.31
2022-11-16T11:50:43.105Z,1.32
2022-11-16T11:53:28.126Z,1.23
2022-11-16T11:55:58.786Z,1.47
2022-11-16T11:58:31.373Z,1.43
2022-11-16T12:01:25.542Z,1.20
2022-11-16T12:04:23.965Z,1.22
2022-11-16T12:07:03.225Z,1.19
2022-11-16T12:09:44.605Z,1.36
2022-11-16T12:12:28.789Z,1.19
2022-11-16T12:15:26.529Z,1.36
2022-11-16T12:18:08.104Z,1.25
2022-11-16T12:20:51.506Z,1.16
2022-11-16T12:23:37.795Z,1.18
2022-11-16T12:26:14.125Z,0.99
2022-11-16T12:28:58.044Z,1.25
2022-11-16T12:31:53.184Z,1.03
2022-11-16T12:34:39.585Z,0.91
2022-11-16T12:37:16.746Z,1.07
2022-11-16T12:40:00.585Z,1.20
2022-11-16T12:42:40.478Z,1.21
2022-11-16T12:45:45.891Z,1.05
2022-11-16T12:48:59.974Z,1.09
2022-11-16T12:51:48.905Z,1.09
2022-11-16T12:55:19.076Z,1.08
2022-11-16T12:57:52.883Z,1.19
2022-11-16T13:00:20.525Z,1.11
2022-11-16T13:03:08.626Z,1.07
2022-11-16T13:05:54.550Z,1.07
2022-11-16T13:08:41.251Z,1.00
2022-11-16T13:11:15.928Z,0.86
2022-11-16T13:13:51.481Z,0.80
2022-11-16T13:16:22.624Z,0.82
2022-11-16T13:18:52.685Z,0.93
2022-11-16T13:21:30.866Z,0.90
2022-11-16T13:24:21.588Z,0.98
2022-11-16T13:26:57.705Z,1.05
2022-11-16T13:29:34.316Z,0.94
2022-11-16T13:32:14.024Z,1.15
2022-11-16T13:34:42.044Z,1.02
2022-11-16T13:37:43.068Z,0.98
2022-11-16T13:40:22.564Z,0.97
2022-11-16T13:43:05.284Z,0.76
2022-11-16T13:45:37.264Z,1.06
2022-11-16T13:48:17.406Z,0.95
2022-11-16T13:50:51.185Z,1.08
2022-11-16T13:54:17.851Z,1.16
2022-11-16T13:56:28.351Z,1.15
2022-11-16T13:58:58.557Z,0.94
2022-11-16T14:01:26.032Z,0.75
2022-11-16T14:04:31.626Z,0.71
2022-11-16T14:07:00.247Z,0.81
2022-11-16T14:09:48.069Z,0.90
2022-11-16T14:12:54.705Z,1.01
2022-11-16T14:15:28.947Z,1.40
2022-11-16T14:18:00.525Z,1.01
2022-11-16T14:20:53.156Z,1.21
2022-11-16T14:23:35.048Z,1.18
2022-11-16T14:26:18.670Z,1.31
2022-11-16T14:29:07.046Z,1.63
2022-11-16T14:31:51.911Z,1.43
2022-11-16T14:34:23.645Z,1.16
2022-11-16T14:36:51.946Z,1.15
2022-11-16T14:39:33.644Z,0.98
2022-11-16T14:42:05.964Z,1.05
2022-11-16T14:44:38.488Z,1.24
2022-11-16T14:47:23.424Z,1.15
2022-11-16T14:49:51.758Z,0.98
2022-11-16T14:52:27.305Z,1.01
2022-11-16T14:54:58.825Z,0.98
2022-11-16T14:57:26.385Z,0.98
2022-11-16T15:00:09.028Z,1.27
2022-11-16T15:02:39.917Z,1.08
2022-11-16T15:05:07.934Z,1.07
2022-11-16T15:07:35.201Z,1.25
2022-11-16T15:10:02.645Z,1.07
2022-11-16T15:12:41.469Z,0.96
2022-11-16T15:15:15.424Z,0.84
2022-11-16T15:17:46.565Z,0.82
2022-11-16T15:20:19.005Z,0.86
2022-11-16T15:22:48.286Z,0.94
2022-11-16T15:25:28.188Z,1.36
2022-11-16T15:27:57.384Z,1.41
2022-11-16T15:30:27.224Z,1.20
2022-11-16T15:32:56.807Z,1.96
2022-11-16T15:35:28.108Z,1.79
2022-11-16T15:38:03.009Z,2.00
2022-11-16T15:40:31.066Z,1.81
2022-11-16T15:43:01.224Z,1.91
2022-11-16T15:45:31.829Z,1.75
2022-11-16T15:48:03.086Z,1.44
2022-11-16T15:50:30.774Z,1.50
2022-11-16T15:52:58.289Z,1.48
2022-11-16T15:55:33.166Z,1.31
2022-11-16T15:58:13.706Z,1.05
2022-11-16T16:00:42.566Z,1.04
2022-11-16T16:03:22.324Z,1.44
2022-11-16T16:05:50.126Z,1.14
2022-11-16T16:08:29.325Z,1.22
2022-11-16T16:11:10.727Z,1.10
2022-11-16T16:13:40.147Z,1.24
2022-11-16T16:16:27.186Z,1.56
2022-11-16T16:19:00.772Z,1.12
2022-11-16T16:21:42.527Z,0.68
2022-11-16T16:24:31.927Z,1.24
2022-11-16T16:26:59.045Z,1.36
2022-11-16T16:29:27.746Z,1.33
2022-11-16T16:31:56.325Z,1.53
2022-11-16T16:34:25.454Z,1.26
2022-11-16T16:36:53.270Z,1.21
2022-11-16T16:39:20.751Z,1.33
2022-11-16T16:41:48.302Z,1.61
2022-11-16T16:44:16.488Z,2.09
2022-11-16T16:46:43.685Z,2.26
2022-11-16T16:49:11.388Z,1.92
2022-11-16T16:51:40.486Z,1.93
2022-11-16T16:54:09.847Z,1.84
2022-11-16T16:56:37.187Z,2.25
2022-11-16T16:59:04.746Z,2.19
2022-11-16T17:01:32.194Z,2.00
2022-11-16T17:03:59.906Z,1.95
2022-11-16T17:06:27.665Z,2.02
2022-11-16T17:08:57.830Z,2.29
2022-11-16T17:11:26.408Z,3.65
2022-11-16T17:13:54.627Z,3.14
2022-11-16T17:16:22.306Z,3.27
2022-11-16T17:18:54.766Z,2.78
2022-11-16T17:21:23.107Z,2.30
2022-11-16T17:23:51.034Z,2.83
2022-11-16T17:26:21.147Z,2.06
2022-11-16T17:28:49.907Z,1.96
2022-11-16T17:31:18.388Z,1.62
2022-11-16T17:33:46.407Z,2.11
2022-11-16T17:36:15.586Z,2.35
2022-11-16T17:38:44.606Z,2.06
2022-11-16T17:41:15.349Z,2.05
2022-11-16T17:43:47.249Z,2.05
2022-11-16T17:46:17.907Z,2.14
2022-11-16T17:48:48.466Z,2.37
2022-11-16T17:51:19.194Z,2.28
2022-11-16T17:53:47.606Z,2.63
2022-11-16T17:56:18.946Z,2.54
2022-11-16T17:58:50.388Z,3.04
2022-11-16T18:01:19.536Z,3.13
2022-11-16T18:03:47.334Z,2.63
2022-11-16T18:06:17.906Z,2.25
2022-11-16T18:08:45.647Z,1.70
2022-11-16T18:11:14.852Z,1.66
2022-11-16T18:13:42.209Z,2.14
2022-11-16T18:16:13.328Z,1.95
2022-11-16T18:18:41.688Z,1.86
2022-11-16T18:21:10.048Z,2.02
2022-11-16T18:23:38.565Z,1.84
2022-11-16T18:26:08.544Z,1.97
2022-11-16T18:28:36.223Z,2.01
2022-11-16T18:31:05.064Z,1.83
2022-11-16T18:33:36.042Z,2.20
2022-11-16T18:36:04.245Z,2.08
2022-11-16T18:38:31.712Z,2.22
2022-11-16T18:41:07.246Z,2.32
2022-11-16T18:43:35.350Z,2.05
2022-11-16T18:46:02.745Z,2.10
2022-11-16T18:48:30.305Z,2.76
2022-11-16T18:51:04.206Z,2.45
2022-11-16T18:53:33.209Z,2.26
2022-11-16T18:56:00.926Z,2.07
2022-11-16T18:58:50.198Z,2.32
2022-11-16T19:01:17.867Z,2.21
2022-11-16T19:03:45.165Z,2.51
2022-11-16T19:06:13.924Z,2.45
2022-11-16T19:08:41.944Z,2.95
2022-11-16T19:11:11.385Z,4.31
2022-11-16T19:13:39.584Z,3.82
2022-11-16T19:16:07.904Z,4.63
2022-11-16T19:18:35.745Z,5.09
2022-11-16T19:21:04.704Z,5.22
2022-11-16T19:23:37.885Z,4.85
2022-11-16T19:26:06.296Z,3.57
2022-11-16T19:28:36.118Z,3.38
2022-11-16T19:31:11.426Z,3.37
2022-11-16T19:33:39.803Z,3.75
2022-11-16T19:36:08.965Z,4.03
2022-11-16T19:38:38.203Z,4.48
2022-11-16T19:41:06.303Z,4.48
2022-11-16T19:43:34.573Z,4.46
2022-11-16T19:46:03.144Z,5.98
2022-11-16T19:48:31.419Z,4.06
2022-11-16T19:51:04.545Z,3.91
2022-11-16T19:53:31.840Z,5.06
2022-11-16T19:56:00.683Z,4.94
2022-11-16T19:58:28.544Z,5.49
2022-11-16T20:01:01.085Z,5.91
2022-11-16T20:03:28.303Z,6.68
2022-11-16T20:06:05.263Z,6.81
2022-11-16T20:08:32.542Z,6.79
2022-11-16T20:11:01.280Z,6.43
2022-11-16T20:13:28.563Z,5.93
2022-11-16T20:15:55.740Z,5.57
2022-11-16T20:18:22.943Z,6.09
2022-11-16T20:20:50.063Z,6.13
2022-11-16T20:23:17.242Z,5.82
2022-11-16T20:25:44.453Z,5.71
2022-11-16T20:28:13.060Z,3.16
2022-11-16T20:30:45.779Z,2.63
2022-11-16T20:33:13.100Z,3.74
2022-11-16T20:35:40.219Z,4.13
2022-11-16T20:38:07.760Z,4.28
2022-11-16T20:40:34.901Z,4.41
2022-11-16T20:43:02.080Z,4.55
2022-11-16T20:45:32.940Z,4.82
2022-11-16T20:48:00.124Z,4.93
2022-11-16T20:50:27.360Z,4.98
2022-11-16T20:52:54.961Z,4.66
2022-11-16T20:55:22.280Z,3.93
2022-11-16T20:57:49.680Z,3.71
2022-11-16T21:00:18.702Z,3.83
2022-11-16T21:02:47.492Z,4.00
2022-11-16T21:05:15.032Z,3.95
2022-11-16T21:07:42.320Z,4.11
2022-11-16T21:10:10.962Z,3.45
2022-11-16T21:12:42.661Z,3.27
2022-11-16T21:15:11.258Z,3.45
2022-11-16T21:17:38.461Z,3.52
2022-11-16T21:22:56.721Z,2.96
2022-11-16T21:25:24.639Z,3.15
2022-11-16T21:27:52.821Z,3.14
2022-11-16T21:30:20.720Z,3.38
2022-11-16T21:32:48.079Z,3.50
2022-11-16T21:35:17.242Z,3.20
2022-11-16T21:37:44.681Z,3.46
2022-11-16T21:40:12.662Z,3.56
2022-11-16T21:42:39.863Z,3.30
2022-11-16T21:45:08.492Z,3.42
2022-11-16T21:47:35.734Z,3.52
2022-11-16T21:50:32.794Z,3.67
2022-11-16T21:52:51.480Z,3.51
2022-11-16T21:55:19.442Z,3.54
2022-11-16T21:57:46.541Z,3.50
2022-11-16T22:00:16.082Z,3.50
2022-11-16T22:02:43.419Z,3.68
2022-11-16T22:05:10.684Z,3.55
2022-11-16T22:07:40.002Z,3.28
2022-11-16T22:10:11.404Z,3.31
2022-11-16T22:12:39.503Z,3.21
2022-11-16T22:15:08.480Z,3.47
2022-11-16T22:17:35.619Z,3.17
2022-11-16T22:20:02.948Z,2.97
2022-11-16T22:22:30.240Z,2.89
2022-11-16T22:24:57.420Z,3.15
2022-11-16T22:27:26.332Z,2.88
2022-11-16T22:29:53.432Z,2.88
2022-11-16T22:32:20.662Z,2.85
2022-11-16T22:34:48.200Z,2.88
2022-11-16T22:37:15.360Z,2.97
2022-11-16T22:39:43.204Z,3.05
2022-11-16T22:42:10.702Z,2.98
2022-11-16T22:44:39.373Z,3.15
2022-11-16T22:47:06.681Z,3.31
2022-11-16T22:49:33.863Z,2.90
2022-11-16T22:52:01.081Z,2.63
2022-11-16T22:54:28.891Z,2.52
2022-11-16T22:56:56.364Z,2.55
2022-11-16T22:59:23.843Z,2.27
2022-11-16T23:01:52.518Z,2.28
2022-11-16T23:04:20.063Z,2.38
2022-11-16T23:06:47.303Z,2.49
2022-11-16T23:09:14.593Z,2.56
2022-11-16T23:11:41.802Z,2.61
2022-11-16T23:14:12.046Z,2.51
2022-11-16T23:16:40.507Z,2.63
2022-11-16T23:19:11.963Z,2.78
2022-11-16T23:21:39.114Z,2.48
2022-11-16T23:24:09.927Z,2.48
2022-11-16T23:26:37.114Z,2.45
2022-11-16T23:29:08.004Z,2.52
2022-11-16T23:31:35.383Z,2.48
2022-11-16T23:34:02.739Z,2.37
2022-11-16T23:36:31.424Z,2.31
2022-11-16T23:38:58.604Z,1.96
2022-11-16T23:41:25.894Z,2.11
2022-11-16T23:43:53.056Z,2.05
2022-11-16T23:46:20.341Z,1.93
2022-11-16T23:48:47.611Z,2.02
2022-11-16T23:51:14.703Z,2.08
2022-11-16T23:53:43.602Z,2.15
2022-11-16T23:56:10.902Z,2.19
2022-11-16T23:58:38.263Z,1.92
